Time;durP1;ratioP1;P1;durP2;ratioP2;P2;SDS_P1;SDS_P2;PMS_P1;PMS_P2;Temp;Humidity;BMP_temperature;BMP_pressure;BME280_temperature;BME280_humidity;BME280_pressure;Samples;Min_cycle;Max_cycle;Signal;HPM_P1;HPM_P2
2022/05/20 00:00:14;;;;;;;8.02;5.28;;;13.70;99.90;;;;;;5032411;28;20512;-64
2022/05/20 00:02:40;;;;;;;10.40;5.50;;;13.70;99.90;;;;;;5053029;28;20437;-62
2022/05/20 00:05:07;;;;;;;8.10;5.25;;;13.70;99.90;;;;;;5011672;28;20675;-63
2022/05/20 00:07:33;;;;;;;8.68;5.32;;;13.80;99.90;;;;;;5031022;28;20067;-63
2022/05/20 00:09:58;;;;;;;12.02;6.03;;;13.80;99.90;;;;;;5016293;28;20072;-62
2022/05/20 00:12:24;;;;;;;11.20;6.50;;;13.70;99.90;;;;;;5005150;28;21321;-62
2022/05/20 00:14:50;;;;;;;9.82;6.10;;;13.80;99.90;;;;;;5004044;28;20051;-63
2022/05/20 00:17:16;;;;;;;10.18;6.03;;;13.70;99.90;;;;;;4996648;28;20398;-61
2022/05/20 00:19:42;;;;;;;11.30;6.97;;;13.70;99.90;;;;;;5034147;28;20388;-63
2022/05/20 00:22:08;;;;;;;12.48;6.28;;;13.70;99.90;;;;;;5021291;28;20501;-61
2022/05/20 00:25:45;;;;;;;9.77;5.88;;;13.70;99.90;;;;;;5055347;28;20175;-62
2022/05/20 00:27:20;;;;;;;11.05;6.22;;;13.60;99.90;;;;;;5030522;28;20088;-62
2022/05/20 00:29:46;;;;;;;9.40;6.43;;;13.70;99.90;;;;;;5050056;28;20076;-62
2022/05/20 00:32:12;;;;;;;9.23;6.90;;;13.60;99.90;;;;;;5031691;28;20052;-63
2022/05/20 00:34:38;;;;;;;8.70;6.40;;;13.60;99.90;;;;;;5019046;28;20063;-62
2022/05/20 00:37:03;;;;;;;11.00;7.35;;;13.60;99.90;;;;;;5022433;28;20948;-61
2022/05/20 00:39:29;;;;;;;13.68;7.28;;;13.50;99.90;;;;;;5017454;28;20045;-62
2022/05/20 00:41:55;;;;;;;12.98;7.55;;;13.60;99.90;;;;;;5048445;28;20055;-62
2022/05/20 00:44:21;;;;;;;14.15;8.45;;;13.50;99.90;;;;;;5033696;28;20049;-62
2022/05/20 00:46:47;;;;;;;11.23;8.32;;;13.50;99.90;;;;;;5031161;28;21075;-62
2022/05/20 00:49:15;;;;;;;13.32;10.18;;;13.40;99.90;;;;;;5019840;28;20500;-63
2022/05/20 00:51:53;;;;;;;13.68;9.25;;;13.50;99.90;;;;;;5021450;28;20048;-63
2022/05/20 00:54:24;;;;;;;14.38;9.40;;;13.40;99.90;;;;;;5053064;28;20041;-63
2022/05/20 00:57:06;;;;;;;12.90;10.00;;;13.40;99.90;;;;;;5036344;28;20048;-61
2022/05/20 00:59:36;;;;;;;14.45;9.80;;;13.30;99.90;;;;;;5054502;28;20040;-63
2022/05/20 01:02:10;;;;;;;14.90;10.40;;;13.30;99.90;;;;;;5033075;28;20041;-62
2022/05/20 01:04:37;;;;;;;15.60;10.52;;;13.20;99.90;;;;;;5022042;28;20099;-63
2022/05/20 01:07:04;;;;;;;14.88;10.27;;;13.20;99.90;;;;;;5037195;28;20068;-63
2022/05/20 01:09:30;;;;;;;15.73;10.77;;;13.10;99.90;;;;;;5054485;28;20091;-62
2022/05/20 01:11:56;;;;;;;16.52;10.70;;;13.10;99.90;;;;;;5021764;28;20135;-61
2022/05/20 01:14:25;;;;;;;16.15;10.98;;;13.00;99.90;;;;;;5034000;28;20055;-63
2022/05/20 01:16:51;;;;;;;17.50;11.82;;;13.00;99.90;;;;;;5036647;28;20347;-63
2022/05/20 01:19:51;;;;;;;15.85;11.40;;;13.00;99.90;;;;;;5035008;28;20572;-62
2022/05/20 01:22:45;;;;;;;15.23;10.45;;;12.90;99.90;;;;;;5026325;28;21103;-63
2022/05/20 01:25:11;;;;;;;12.13;10.48;;;12.80;99.90;;;;;;5047521;28;20041;-63
2022/05/20 01:27:42;;;;;;;15.18;11.85;;;12.80;99.90;;;;;;5007931;28;20183;-61
2022/05/20 01:30:11;;;;;;;17.33;12.45;;;12.70;99.90;;;;;;5020046;28;20062;-63
2022/05/20 01:32:38;;;;;;;18.35;12.32;;;12.70;99.90;;;;;;5023709;28;20118;-62
2022/05/20 01:35:07;;;;;;;15.57;11.35;;;12.70;99.90;;;;;;5032103;28;20048;-62
2022/05/20 01:37:33;;;;;;;15.43;11.45;;;12.60;99.90;;;;;;5030755;28;20424;-61
2022/05/20 01:40:00;;;;;;;17.30;11.95;;;12.60;99.90;;;;;;5047435;28;20047;-61
2022/05/20 01:43:00;;;;;;;16.38;12.23;;;12.60;99.90;;;;;;5022663;28;20044;-63
2022/05/20 01:45:46;;;;;;;20.08;12.70;;;12.60;99.90;;;;;;5030321;28;20040;-61
2022/05/20 01:48:23;;;;;;;18.65;11.73;;;12.50;99.90;;;;;;5035908;28;20110;-62
2022/05/20 01:50:54;;;;;;;14.65;11.57;;;12.50;99.90;;;;;;5017675;28;20049;-61
2022/05/20 01:53:38;;;;;;;15.23;13.00;;;12.50;99.90;;;;;;5033025;28;22653;-63
2022/05/20 01:56:12;;;;;;;16.35;12.18;;;12.50;99.90;;;;;;5047858;28;20043;-62
2022/05/20 01:58:49;;;;;;;14.02;11.32;;;12.40;99.90;;;;;;5031974;28;20139;-63
2022/05/20 02:01:22;;;;;;;15.63;12.10;;;12.40;99.90;;;;;;5035221;28;20056;-61
2022/05/20 02:03:55;;;;;;;14.35;11.50;;;12.40;99.90;;;;;;5040340;28;20143;-63
2022/05/20 02:06:21;;;;;;;;;;;12.40;99.90;;;;;;5020594;28;20076;-61
2022/05/20 02:08:57;;;;;;;13.45;11.70;;;12.30;99.90;;;;;;4994891;28;19920;-62
2022/05/20 02:11:27;;;;;;;17.73;12.13;;;12.30;99.90;;;;;;5030849;28;20045;-62
2022/05/20 02:14:17;;;;;;;13.63;10.48;;;12.20;99.90;;;;;;5011404;28;20048;-63
2022/05/20 02:17:06;;;;;;;17.33;10.02;;;12.20;99.90;;;;;;5012652;28;20042;-63
2022/05/20 02:19:39;;;;;;;15.77;11.05;;;12.20;99.90;;;;;;5014296;28;20373;-61
2022/05/20 02:22:11;;;;;;;17.48;11.43;;;12.20;99.90;;;;;;5013092;28;20045;-61
2022/05/20 02:24:40;;;;;;;18.60;12.18;;;12.10;99.90;;;;;;5017752;28;20124;-63
2022/05/20 02:27:11;;;;;;;15.18;12.20;;;12.10;99.90;;;;;;5030727;28;20124;-63
2022/05/20 02:30:00;;;;;;;19.25;11.80;;;12.10;99.90;;;;;;4998449;28;20878;-62
2022/05/20 02:32:34;;;;;;;17.48;12.50;;;12.10;99.90;;;;;;5013204;28;20188;-62
2022/05/20 02:35:00;;;;;;;14.57;11.02;;;12.10;99.90;;;;;;5013059;28;20044;-62
2022/05/20 02:37:33;;;;;;;15.45;11.50;;;12.10;99.90;;;;;;4970159;28;20160;-61
2022/05/20 02:40:01;;;;;;;13.05;9.82;;;12.10;99.90;;;;;;5012297;28;20083;-62
2022/05/20 02:42:28;;;;;;;12.90;10.35;;;12.10;99.90;;;;;;5010425;28;20052;-62
2022/05/20 02:44:59;;;;;;;17.38;11.85;;;12.10;99.90;;;;;;5013016;28;20235;-62
2022/05/20 02:47:33;;;;;;;14.98;10.85;;;12.10;99.90;;;;;;5011417;28;20376;-61
2022/05/20 02:50:01;;;;;;;17.55;12.45;;;12.10;99.90;;;;;;5012416;28;20048;-62
2022/05/20 02:52:27;;;;;;;16.90;11.73;;;12.10;99.90;;;;;;5031934;28;20074;-62
2022/05/20 02:54:52;;;;;;;16.58;11.43;;;12.10;99.90;;;;;;4997374;28;20055;-61
2022/05/20 02:57:19;;;;;;;18.42;12.60;;;12.10;99.90;;;;;;5017116;28;20041;-62
2022/05/20 03:05:15;;;;;;;18.13;12.00;;;12.10;99.90;;;;;;5018959;28;20061;-63
2022/05/20 03:07:41;;;;;;;17.23;12.68;;;12.10;99.90;;;;;;5020506;28;20407;-61
2022/05/20 03:10:07;;;;;;;16.40;11.43;;;12.00;99.90;;;;;;5033896;28;20052;-62
2022/05/20 03:12:35;;;;;;;14.73;10.82;;;12.00;99.90;;;;;;5020396;28;20471;-64
2022/05/20 03:15:05;;;;;;;15.57;10.50;;;12.00;99.90;;;;;;5032706;28;20052;-62
2022/05/20 03:17:31;;;;;;;14.82;10.80;;;12.00;99.90;;;;;;5031108;28;20049;-62
2022/05/20 03:19:57;;;;;;;11.45;9.50;;;12.00;99.90;;;;;;4979267;28;20057;-63
2022/05/20 03:22:23;;;;;;;19.08;12.07;;;12.00;99.90;;;;;;5018391;28;20565;-61
2022/05/20 03:24:49;;;;;;;13.43;10.73;;;11.90;99.90;;;;;;4989184;28;20132;-62
2022/05/20 03:27:17;;;;;;;14.75;10.75;;;11.90;99.90;;;;;;5018136;28;20052;-62
2022/05/20 03:29:46;;;;;;;15.75;10.60;;;11.90;99.90;;;;;;5012672;28;20420;-63
2022/05/20 03:32:13;;;;;;;11.85;8.93;;;11.80;99.90;;;;;;5015155;28;20175;-62
2022/05/20 03:34:40;;;;;;;14.20;10.15;;;11.80;99.90;;;;;;5022519;28;20049;-61
2022/05/20 03:37:06;;;;;;;16.83;11.93;;;11.80;99.90;;;;;;4988764;28;20053;-62
2022/05/20 03:39:32;;;;;;;15.75;12.20;;;11.80;99.90;;;;;;5013495;28;20052;-61
2022/05/20 03:41:59;;;;;;;18.88;13.02;;;11.80;99.90;;;;;;5034272;28;20046;-62
2022/05/20 03:44:25;;;;;;;16.58;11.35;;;11.70;99.90;;;;;;5013326;28;20084;-62
2022/05/20 03:46:53;;;;;;;13.40;11.32;;;11.70;99.90;;;;;;5034261;28;20375;-63
2022/05/20 03:49:21;;;;;;;18.05;13.10;;;11.70;99.90;;;;;;5002678;28;20061;-62
2022/05/20 03:51:48;;;;;;;17.42;11.50;;;11.70;99.90;;;;;;5032380;28;20045;-61
2022/05/20 03:54:16;;;;;;;21.05;13.38;;;11.70;99.90;;;;;;5003757;28;20127;-61
2022/05/20 03:56:42;;;;;;;17.30;13.02;;;11.70;99.90;;;;;;5012626;28;20051;-62
2022/05/20 03:59:09;;;;;;;17.77;12.13;;;11.60;99.90;;;;;;5038520;28;20045;-63
2022/05/20 04:04:22;;;;;;;17.58;13.50;;;11.60;99.90;;;;;;5025521;28;20057;-61
2022/05/20 04:06:47;;;;;;;18.73;13.38;;;11.60;99.90;;;;;;5030875;28;21036;-62
2022/05/20 04:09:13;;;;;;;16.30;12.57;;;11.60;99.90;;;;;;5037495;28;20059;-61
2022/05/20 04:11:39;;;;;;;15.35;12.10;;;11.60;99.90;;;;;;5031925;28;20083;-61
2022/05/20 04:14:06;;;;;;;17.13;12.50;;;11.60;99.90;;;;;;5034889;28;20107;-62
2022/05/20 04:16:31;;;;;;;13.68;12.13;;;11.60;99.90;;;;;;5033214;28;20106;-62
2022/05/20 04:18:57;;;;;;;18.40;13.77;;;11.60;99.90;;;;;;5022702;28;20441;-63
2022/05/20 04:21:23;;;;;;;16.67;12.82;;;11.60;99.90;;;;;;5025855;28;20055;-63
2022/05/20 04:23:50;;;;;;;21.58;15.82;;;11.70;99.90;;;;;;5038259;28;20047;-62
2022/05/20 04:26:16;;;;;;;22.08;16.05;;;11.70;99.90;;;;;;5037418;28;20475;-61
2022/05/20 04:28:42;;;;;;;20.70;15.80;;;11.70;99.90;;;;;;5048950;28;20041;-62
2022/05/20 04:31:10;;;;;;;23.25;16.90;;;11.70;99.90;;;;;;5046563;28;20115;-62
2022/05/20 04:33:36;;;;;;;21.85;13.95;;;11.80;99.90;;;;;;5033187;28;20048;-63
2022/05/20 04:36:04;;;;;;;21.40;15.85;;;11.70;99.90;;;;;;5054066;28;20041;-63
2022/05/20 04:38:30;;;;;;;18.88;15.57;;;11.70;99.90;;;;;;5032745;28;20057;-62
2022/05/20 04:49:10;;;;;;;19.98;15.23;;;11.70;99.90;;;;;;5033744;28;20826;-63
2022/05/20 04:51:37;;;;;;;21.75;15.82;;;11.70;99.90;;;;;;5015769;28;20053;-62
2022/05/20 04:56:49;;;;;;;19.15;15.75;;;11.70;99.90;;;;;;5049945;28;20070;-61
2022/05/20 04:59:16;;;;;;;21.67;16.65;;;11.80;99.90;;;;;;5039501;28;20051;-61
2022/05/20 05:01:41;;;;;;;24.52;16.13;;;11.80;99.90;;;;;;5022728;28;20122;-62
2022/05/20 05:04:08;;;;;;;21.83;16.73;;;11.80;99.90;;;;;;5017991;28;20448;-61
2022/05/20 05:06:34;;;;;;;26.80;17.05;;;11.80;99.90;;;;;;5006449;28;20049;-63
2022/05/20 05:09:00;;;;;;;24.73;17.70;;;11.80;99.90;;;;;;5014061;28;20045;-62
2022/05/20 05:11:26;;;;;;;25.60;17.90;;;11.80;99.90;;;;;;5035081;28;20769;-63
2022/05/20 05:13:52;;;;;;;24.98;17.98;;;11.90;99.90;;;;;;5039256;28;20041;-62
2022/05/20 05:16:17;;;;;;;24.15;16.88;;;11.90;99.90;;;;;;5028946;28;20044;-62
2022/05/20 05:18:43;;;;;;;21.13;17.00;;;12.00;99.90;;;;;;5035125;28;20044;-62
2022/05/20 05:21:13;;;;;;;25.33;18.27;;;12.00;99.90;;;;;;5032923;28;20052;-61
2022/05/20 05:23:39;;;;;;;24.67;18.75;;;12.00;99.90;;;;;;5035520;28;20056;-62
2022/05/20 05:26:05;;;;;;;24.13;17.70;;;12.10;99.90;;;;;;5054072;28;20056;-62
2022/05/20 05:28:31;;;;;;;27.33;18.67;;;12.10;99.90;;;;;;5036509;28;20049;-62
2022/05/20 05:30:58;;;;;;;23.55;17.17;;;12.10;99.90;;;;;;5035470;28;20055;-62
2022/05/20 05:33:25;;;;;;;21.10;16.52;;;12.20;99.90;;;;;;5032789;28;20052;-63
2022/05/20 05:35:51;;;;;;;21.27;16.63;;;12.30;99.90;;;;;;5024893;28;20041;-63
2022/05/20 05:38:17;;;;;;;25.42;16.35;;;12.30;99.90;;;;;;5017470;28;20104;-62
2022/05/20 05:40:44;;;;;;;20.10;14.63;;;12.40;99.90;;;;;;5035369;28;20084;-62
2022/05/20 05:43:10;;;;;;;24.55;15.27;;;12.40;99.90;;;;;;5054635;28;20041;-62
2022/05/20 05:45:36;;;;;;;22.95;16.45;;;12.40;99.90;;;;;;5049924;28;20059;-63
2022/05/20 05:48:07;;;;;;;25.65;15.48;;;12.50;99.90;;;;;;5041112;28;20521;-62
2022/05/20 05:50:37;;;;;;;20.65;14.65;;;12.50;99.90;;;;;;5038375;28;20052;-62
2022/05/20 05:53:14;;;;;;;20.63;14.25;;;12.60;99.90;;;;;;5039069;28;20044;-61
2022/05/20 05:55:42;;;;;;;19.13;14.57;;;12.60;99.90;;;;;;5057587;28;20040;-62
2022/05/20 05:58:08;;;;;;;23.48;15.43;;;12.70;99.90;;;;;;5038260;28;20509;-61
2022/05/20 06:00:34;;;;;;;23.48;14.88;;;12.70;99.90;;;;;;5014246;28;20098;-63
2022/05/20 06:03:00;;;;;;;21.77;15.73;;;12.80;99.90;;;;;;5035911;28;20044;-62
2022/05/20 06:05:26;;;;;;;21.23;14.30;;;12.80;99.90;;;;;;5021562;28;21906;-61
2022/05/20 06:07:52;;;;;;;25.92;14.95;;;12.90;99.90;;;;;;5015041;28;20510;-62
2022/05/20 06:10:19;;;;;;;29.67;15.38;;;12.90;99.90;;;;;;5025799;28;20040;-61
2022/05/20 06:12:45;;;;;;;22.77;14.73;;;13.00;99.90;;;;;;5003849;28;20051;-62
2022/05/20 06:15:19;;;;;;;21.75;14.57;;;13.10;99.90;;;;;;5011114;28;20049;-62
2022/05/20 06:17:45;;;;;;;21.20;14.65;;;13.20;99.90;;;;;;5019267;28;20053;-62
2022/05/20 06:20:12;;;;;;;19.52;14.80;;;13.30;99.90;;;;;;5017831;28;20049;-63
2022/05/20 06:22:37;;;;;;;20.15;13.98;;;13.40;99.90;;;;;;4999195;28;20068;-64
2022/05/20 06:25:04;;;;;;;20.48;13.00;;;13.50;99.90;;;;;;4997503;28;20049;-62
2022/05/20 06:27:32;;;;;;;19.75;13.45;;;13.50;99.90;;;;;;5035251;28;20049;-62
2022/05/20 06:29:58;;;;;;;16.45;12.02;;;13.50;99.90;;;;;;5017744;28;20052;-61
2022/05/20 06:32:24;;;;;;;16.73;10.32;;;13.60;99.90;;;;;;5015004;28;20053;-63
2022/05/20 06:40:21;;;;;;;19.77;12.00;;;14.10;99.90;;;;;;5007581;28;20044;-62
2022/05/20 06:42:46;;;;;;;15.40;11.18;;;14.40;99.90;;;;;;5013574;28;20817;-62
2022/05/20 06:45:13;;;;;;;15.13;10.98;;;14.50;99.90;;;;;;5022310;28;20040;-63
2022/05/20 06:47:40;;;;;;;19.52;11.30;;;14.60;99.90;;;;;;5013824;28;20047;-62
2022/05/20 06:50:07;;;;;;;16.77;10.27;;;14.60;99.90;;;;;;5011043;28;20040;-61
2022/05/20 06:52:33;;;;;;;14.15;10.07;;;14.60;99.90;;;;;;5016485;28;20195;-62
2022/05/20 06:54:59;;;;;;;15.57;10.05;;;14.60;99.90;;;;;;5031543;28;20082;-63
2022/05/20 06:57:25;;;;;;;15.05;10.50;;;14.60;99.90;;;;;;5016049;28;20093;-63
2022/05/20 06:59:52;;;;;;;16.50;10.50;;;14.60;99.90;;;;;;5016773;28;20049;-63
2022/05/20 07:02:18;;;;;;;16.70;9.98;;;14.70;99.90;;;;;;5016399;28;20525;-63
2022/05/20 07:04:44;;;;;;;14.30;9.75;;;14.80;99.90;;;;;;5023671;28;20060;-62
2022/05/20 07:07:10;;;;;;;14.10;9.93;;;14.90;99.90;;;;;;5040788;28;20049;-62
2022/05/20 07:09:36;;;;;;;13.25;9.43;;;14.90;99.90;;;;;;5002015;28;20044;-63
2022/05/20 07:12:02;;;;;;;13.00;9.10;;;14.90;99.90;;;;;;5025509;28;20041;-61
2022/05/20 07:14:28;;;;;;;13.02;9.02;;;15.00;99.90;;;;;;5019191;28;20049;-63
2022/05/20 07:16:54;;;;;;;16.92;9.32;;;15.00;99.90;;;;;;5032924;28;20045;-63
2022/05/20 07:19:21;;;;;;;12.38;7.75;;;15.10;99.90;;;;;;5049217;28;20044;-62
2022/05/20 07:21:46;;;;;;;14.32;8.15;;;15.20;99.90;;;;;;5038608;28;20114;-61
2022/05/20 07:24:12;;;;;;;12.88;7.13;;;15.20;99.90;;;;;;5021652;28;20052;-63
2022/05/20 07:26:39;;;;;;;14.50;7.30;;;15.30;99.90;;;;;;5052683;28;20084;-62
2022/05/20 07:29:06;;;;;;;15.38;6.65;;;15.40;99.90;;;;;;5033382;28;20059;-61
2022/05/20 07:31:32;;;;;;;11.88;6.00;;;15.50;99.90;;;;;;5015626;28;20052;-63
2022/05/20 07:33:58;;;;;;;9.50;5.80;;;15.60;99.90;;;;;;5023210;28;20190;-63
2022/05/20 07:36:24;;;;;;;11.05;5.60;;;15.60;99.90;;;;;;5051962;28;20158;-62
2022/05/20 07:38:51;;;;;;;12.63;5.95;;;15.70;99.90;;;;;;5036049;28;20040;-62
2022/05/20 07:41:19;;;;;;;9.38;5.30;;;15.70;99.90;;;;;;5026967;28;20052;-62
2022/05/20 07:43:45;;;;;;;11.55;5.97;;;15.80;99.90;;;;;;5023569;28;20090;-63
2022/05/20 07:46:11;;;;;;;9.20;4.72;;;15.90;99.90;;;;;;5025914;28;20572;-62
2022/05/20 07:48:37;;;;;;;7.45;4.45;;;16.00;99.90;;;;;;5037833;28;20044;-63
2022/05/20 07:51:09;;;;;;;12.40;3.70;;;16.20;99.90;;;;;;5055303;28;20573;-62
2022/05/20 07:53:39;;;;;;;6.13;4.55;;;16.30;99.90;;;;;;5052980;28;20032;-62
2022/05/20 07:56:29;;;;;;;8.60;5.50;;;16.40;99.90;;;;;;5029017;28;20044;-63
2022/05/20 07:59:07;;;;;;;8.75;4.60;;;16.50;99.90;;;;;;5040023;28;20447;-61
2022/05/20 08:01:35;;;;;;;10.68;4.60;;;16.50;99.90;;;;;;5028650;28;20068;-62
2022/05/20 08:07:13;;;;;;;10.52;4.50;;;16.70;99.90;;;;;;5036602;28;20053;-63
2022/05/20 08:09:39;;;;;;;9.40;4.88;;;16.70;99.90;;;;;;5026915;28;20054;-63
2022/05/20 08:12:06;;;;;;;10.95;5.10;;;16.70;99.90;;;;;;5002458;28;20123;-62
2022/05/20 08:14:31;;;;;;;7.47;5.10;;;16.80;99.90;;;;;;5000912;28;20555;-62
2022/05/20 08:16:59;;;;;;;8.43;4.38;;;16.80;99.90;;;;;;5023063;28;20045;-63
2022/05/20 08:19:25;;;;;;;10.27;4.80;;;16.80;99.90;;;;;;5020399;28;20045;-61
2022/05/20 08:21:51;;;;;;;9.00;4.68;;;16.90;99.90;;;;;;5020782;28;20564;-62
2022/05/20 08:24:17;;;;;;;10.65;4.50;;;17.10;99.90;;;;;;5005336;28;20041;-61
2022/05/20 08:26:43;;;;;;;7.53;4.43;;;17.10;99.90;;;;;;5019507;28;20053;-62
2022/05/20 08:29:12;;;;;;;9.63;4.55;;;17.20;99.90;;;;;;5022529;28;20584;-62
2022/05/20 08:31:39;;;;;;;6.45;3.50;;;17.30;99.90;;;;;;5004607;28;20059;-63
2022/05/20 08:34:05;;;;;;;8.65;3.33;;;17.40;99.90;;;;;;5014287;28;20630;-63
2022/05/20 08:36:32;;;;;;;4.95;3.10;;;17.50;99.90;;;;;;4989930;28;20127;-62
2022/05/20 08:38:58;;;;;;;8.43;3.45;;;17.50;99.90;;;;;;5037787;28;20063;-62
2022/05/20 08:41:32;;;;;;;8.10;4.05;;;17.50;99.90;;;;;;5004652;28;20045;-62
2022/05/20 08:43:59;;;;;;;8.38;3.55;;;17.60;99.90;;;;;;5021451;28;20088;-62
2022/05/20 08:46:25;;;;;;;6.85;3.75;;;17.70;99.90;;;;;;5021399;28;20044;-62
2022/05/20 08:48:56;;;;;;;6.20;3.80;;;17.70;99.90;;;;;;5017191;28;20045;-62
2022/05/20 08:51:27;;;;;;;7.75;3.50;;;17.80;99.90;;;;;;5034460;28;20057;-62
2022/05/20 08:53:53;;;;;;;6.60;3.67;;;17.90;99.90;;;;;;5019419;28;20495;-62
2022/05/20 08:56:24;;;;;;;7.97;3.45;;;17.90;99.90;;;;;;5016616;28;20052;-61
2022/05/20 08:58:54;;;;;;;7.53;3.38;;;18.00;99.90;;;;;;5005337;28;20053;-63
2022/05/20 09:01:39;;;;;;;6.05;3.22;;;18.00;99.90;;;;;;5000767;28;20072;-64
2022/05/20 09:04:07;;;;;;;6.35;2.80;;;18.20;99.90;;;;;;5021134;28;20128;-63
2022/05/20 09:06:38;;;;;;;5.20;3.08;;;18.30;99.90;;;;;;5055325;28;20152;-62
2022/05/20 09:09:14;;;;;;;7.68;3.20;;;18.40;99.90;;;;;;5034180;28;20051;-64
2022/05/20 09:11:42;;;;;;;6.00;2.90;;;18.50;99.90;;;;;;5024685;28;20434;-62
2022/05/20 09:17:13;;;;;;;7.60;3.03;;;18.60;99.70;;;;;;5037711;28;20044;-62
2022/05/20 09:20:05;;;;;;;7.40;3.28;;;18.70;99.90;;;;;;5033714;28;20045;-62
2022/05/20 09:22:38;;;;;;;9.90;3.45;;;18.80;99.50;;;;;;5022528;28;20044;-62
2022/05/20 09:25:34;;;;;;;6.13;2.88;;;18.90;99.60;;;;;;5054783;28;20051;-62
2022/05/20 09:28:21;;;;;;;7.00;2.83;;;18.90;99.10;;;;;;5035755;28;20049;-63
2022/05/20 09:30:52;;;;;;;4.47;2.40;;;19.00;99.00;;;;;;5035258;28;20135;-64
2022/05/20 09:33:24;;;;;;;5.80;2.88;;;19.10;98.80;;;;;;5028284;28;20068;-63
2022/05/20 09:35:57;;;;;;;5.30;2.75;;;19.20;99.00;;;;;;5050322;28;20052;-63
2022/05/20 09:38:41;;;;;;;9.07;3.17;;;19.30;98.70;;;;;;5011959;28;20490;-63
2022/05/20 09:41:20;;;;;;;11.00;3.60;;;19.40;98.80;;;;;;5037436;28;20052;-63
2022/05/20 09:43:58;;;;;;;7.90;3.50;;;19.40;98.50;;;;;;5032646;28;20350;-63
2022/05/20 09:46:45;;;;;;;8.48;3.33;;;19.50;98.30;;;;;;5035120;28;20044;-63
2022/05/20 09:49:42;;;;;;;8.50;3.65;;;19.50;98.20;;;;;;5033799;28;20869;-64
2022/05/20 09:52:23;;;;;;;9.73;3.65;;;19.50;98.00;;;;;;5032430;28;20052;-64
2022/05/20 09:54:59;;;;;;;5.75;2.97;;;19.60;97.80;;;;;;5039198;28;20090;-63
2022/05/20 09:57:30;;;;;;;5.20;2.90;;;19.70;97.60;;;;;;5052773;28;20135;-63
2022/05/20 10:00:17;;;;;;;7.10;3.40;;;19.70;97.50;;;;;;5047413;28;20127;-64
2022/05/20 10:02:50;;;;;;;6.90;3.67;;;19.70;96.80;;;;;;5043351;28;20051;-64
2022/05/20 10:05:25;;;;;;;7.07;3.28;;;19.70;96.90;;;;;;5043474;28;20513;-64
2022/05/20 10:08:07;;;;;;;5.10;2.70;;;19.70;96.80;;;;;;5021429;28;20056;-63
2022/05/20 10:10:37;;;;;;;;;;;19.80;96.60;;;;;;5038977;28;20052;-64
2022/05/20 10:13:07;;;;;;;7.35;2.90;;;19.80;96.60;;;;;;5071459;28;20274;-64
2022/05/20 10:15:42;;;;;;;7.78;3.17;;;19.80;96.80;;;;;;5038557;28;20045;-63
2022/05/20 10:18:30;;;;;;;5.80;2.70;;;19.80;96.30;;;;;;5028315;28;20045;-64
2022/05/20 10:21:31;;;;;;;6.28;2.58;;;19.80;95.50;;;;;;5040832;28;20079;-64
2022/05/20 10:24:00;;;;;;;5.07;2.22;;;19.80;95.50;;;;;;5037390;28;20056;-64
2022/05/20 10:26:55;;;;;;;3.97;1.83;;;19.80;94.60;;;;;;5055267;28;20151;-64
2022/05/20 10:32:42;;;;;;;5.18;1.90;;;19.80;93.50;;;;;;5038330;28;20434;-64
2022/05/20 10:35:14;;;;;;;4.47;1.98;;;20.00;93.90;;;;;;5043939;28;20040;-64
2022/05/20 10:38:17;;;;;;;4.78;1.90;;;20.10;93.90;;;;;;5047810;28;20056;-64
2022/05/20 10:40:52;;;;;;;7.13;2.40;;;20.10;92.80;;;;;;5026440;28;20111;-64
2022/05/20 10:49:43;;;;;;;5.40;2.50;;;20.10;91.70;;;;;;5042221;28;20123;-63
2022/05/20 10:52:42;;;;;;;4.70;2.45;;;20.10;92.20;;;;;;5052835;28;20040;-64
2022/05/20 10:55:08;;;;;;;6.55;2.67;;;20.10;92.70;;;;;;5021642;28;20072;-64
2022/05/20 10:57:55;;;;;;;5.30;2.83;;;20.20;93.60;;;;;;5034542;28;20056;-64
2022/05/20 11:00:46;;;;;;;8.32;3.17;;;20.30;93.80;;;;;;5055245;28;20490;-64
2022/05/20 11:03:44;;;;;;;5.65;3.08;;;20.40;93.80;;;;;;5037144;28;20055;-63
2022/05/20 11:06:37;;;;;;;6.40;3.35;;;20.50;93.90;;;;;;5037074;28;20140;-64
2022/05/20 11:09:06;;;;;;;8.13;3.10;;;20.60;93.90;;;;;;5055519;28;20084;-64
2022/05/20 11:11:51;;;;;;;7.03;2.97;;;20.60;94.00;;;;;;5054944;28;20037;-63
2022/05/20 11:15:00;;;;;;;6.40;2.92;;;20.70;93.60;;;;;;5028705;28;20045;-64
2022/05/20 11:17:37;;;;;;;6.35;2.85;;;20.60;93.20;;;;;;5039488;28;20048;-64
2022/05/20 11:20:18;;;;;;;4.35;2.60;;;20.50;91.90;;;;;;5057963;28;20052;-63
2022/05/20 11:23:12;;;;;;;6.65;3.00;;;20.50;91.90;;;;;;5056291;28;20136;-63
2022/05/20 11:25:52;;;;;;;8.45;3.53;;;20.60;92.10;;;;;;5041871;28;20052;-64
2022/05/20 11:28:29;;;;;;;4.25;2.78;;;20.60;91.60;;;;;;5023277;28;20221;-64
2022/05/20 11:31:17;;;;;;;6.72;3.03;;;20.70;91.50;;;;;;5064012;28;20080;-64
2022/05/20 11:33:54;;;;;;;6.13;3.03;;;20.80;91.40;;;;;;5058009;28;20055;-63
2022/05/20 11:36:52;;;;;;;5.57;2.97;;;20.90;91.00;;;;;;5038135;28;20068;-64
2022/05/20 11:39:26;;;;;;;6.90;3.20;;;21.00;90.50;;;;;;5060791;28;20052;-64
2022/05/20 11:42:37;;;;;;;5.30;3.20;;;21.10;90.20;;;;;;5047188;28;20506;-64
2022/05/20 11:45:23;;;;;;;5.70;3.33;;;21.10;90.30;;;;;;5026289;28;20064;-64
2022/05/20 11:48:04;;;;;;;7.18;3.33;;;21.10;89.60;;;;;;5056597;28;20065;-63
2022/05/20 11:50:35;;;;;;;8.05;3.33;;;21.20;88.40;;;;;;5056943;28;20098;-64
2022/05/20 11:53:18;;;;;;;7.88;3.35;;;21.30;88.00;;;;;;5027144;28;20064;-64
2022/05/20 11:56:08;;;;;;;3.78;2.83;;;21.30;87.10;;;;;;5057475;28;20036;-64
2022/05/20 11:58:48;;;;;;;5.28;2.80;;;21.40;86.30;;;;;;5038658;28;20749;-64
2022/05/20 12:01:14;;;;;;;5.68;2.40;;;21.40;85.80;;;;;;5071236;28;20421;-64
2022/05/20 12:06:30;;;;;;;3.25;1.83;;;21.60;81.30;;;;;;5056819;28;20059;-64
2022/05/20 12:08:59;;;;;;;4.78;2.30;;;21.60;77.20;;;;;;5038084;28;20052;-64
2022/05/20 12:12:06;;;;;;;4.50;1.92;;;21.60;75.00;;;;;;5067465;28;20567;-64
2022/05/20 12:15:04;;;;;;;5.00;2.30;;;21.40;73.50;;;;;;5057385;28;20082;-64
2022/05/20 12:17:45;;;;;;;4.50;2.42;;;21.40;74.40;;;;;;5036730;28;20123;-64
2022/05/20 12:26:19;;;;;;;4.28;2.80;;;21.40;73.00;;;;;;5038908;28;20098;-64
2022/05/20 12:28:45;;;;;;;6.15;3.42;;;21.30;72.40;;;;;;5028866;28;20491;-64
2022/05/20 12:31:20;;;;;;;5.03;3.25;;;21.30;72.50;;;;;;5017189;28;20157;-64
2022/05/20 12:34:09;;;;;;;4.75;3.35;;;21.30;72.10;;;;;;5028518;28;20044;-64
2022/05/20 12:36:40;;;;;;;4.25;2.78;;;21.40;72.60;;;;;;5016378;28;20044;-62
2022/05/20 12:39:12;;;;;;;6.35;2.80;;;21.40;72.90;;;;;;5043601;28;20044;-62
2022/05/20 12:41:44;;;;;;;6.25;3.30;;;21.50;71.90;;;;;;5028957;28;21101;-61
2022/05/20 12:44:16;;;;;;;18.77;3.53;;;21.80;72.30;;;;;;5044508;28;20033;-61
2022/05/20 12:46:59;;;;;;;6.35;3.20;;;22.20;72.60;;;;;;5044294;28;20036;-61
2022/05/20 12:49:32;;;;;;;5.47;4.75;;;22.50;71.90;;;;;;5042095;28;20049;-61
2022/05/20 12:52:19;;;;;;;4.70;4.07;;;22.50;70.00;;;;;;5040180;28;20044;-61
2022/05/20 12:54:46;;;;;;;20.40;5.13;;;22.20;69.00;;;;;;5028604;28;20040;-61
2022/05/20 12:57:21;;;;;;;12.63;4.50;;;21.90;69.70;;;;;;5043719;28;20588;-61
2022/05/20 12:59:54;;;;;;;10.38;4.32;;;21.70;70.50;;;;;;5043638;28;20143;-61
2022/05/20 13:02:21;;;;;;;11.98;4.28;;;21.60;71.30;;;;;;5039649;28;20041;-60
2022/05/20 13:05:02;;;;;;;6.13;3.97;;;21.60;71.10;;;;;;5028033;28;20049;-61
2022/05/20 13:07:31;;;;;;;6.63;4.85;;;21.70;69.20;;;;;;5034832;28;20040;-61
2022/05/20 13:09:56;;;;;;;7.10;4.95;;;21.70;69.70;;;;;;5036531;28;20045;-60
2022/05/20 13:12:23;;;;;;;6.53;5.03;;;21.70;70.10;;;;;;5047260;28;20060;-60
2022/05/20 13:15:04;;;;;;;8.85;5.57;;;21.80;70.90;;;;;;5053805;28;20127;-60
2022/05/20 13:17:32;;;;;;;11.75;6.22;;;21.70;70.90;;;;;;5036653;28;20529;-61
2022/05/20 13:19:59;;;;;;;6.97;5.07;;;21.50;70.50;;;;;;5037776;28;20048;-60
2022/05/20 13:22:27;;;;;;;8.70;5.10;;;21.40;70.00;;;;;;5030627;28;20072;-61
2022/05/20 13:25:06;;;;;;;8.35;4.35;;;21.20;70.00;;;;;;5030944;28;20091;-61
2022/05/20 13:27:32;;;;;;;9.05;5.20;;;21.00;71.50;;;;;;5033036;28;20052;-61
2022/05/20 13:30:10;;;;;;;9.52;4.90;;;20.90;72.20;;;;;;5016242;28;20052;-61
2022/05/20 13:32:36;;;;;;;7.18;4.60;;;20.80;72.80;;;;;;5050027;28;20048;-61
2022/05/20 13:35:05;;;;;;;7.47;4.93;;;20.70;73.80;;;;;;5037328;28;20112;-61
2022/05/20 13:37:51;;;;;;;8.40;5.25;;;20.60;73.70;;;;;;5047768;28;20052;-61
2022/05/20 13:40:53;;;;;;;6.55;4.57;;;20.50;73.70;;;;;;5027331;28;20132;-62
2022/05/20 13:43:25;;;;;;;6.05;4.85;;;20.30;73.40;;;;;;4969083;28;20124;-61
2022/05/20 13:51:42;;;;;;;6.45;4.10;;;20.00;72.90;;;;;;5042201;28;20051;-61
2022/05/20 13:54:12;;;;;;;5.13;3.77;;;19.90;72.50;;;;;;5048565;28;20102;-61
2022/05/20 13:56:41;;;;;;;6.25;3.25;;;19.80;72.10;;;;;;5047916;28;20087;-62